sensor_id;sensor_type;location;lat;lon;timestamp;P1;durP1;ratioP1;P2;durP2;ratioP2
61344;SDS011;47216;42.656;23.232;2023-03-23T00:00:53;15.43;;;8.93;;
61344;SDS011;47216;42.656;23.232;2023-03-23T00:03:20;11.87;;;7.73;;
61344;SDS011;47216;42.656;23.232;2023-03-23T00:05:47;13.90;;;8.63;;
61344;SDS011;47216;42.656;23.232;2023-03-23T00:08:17;14.50;;;8.03;;
61344;SDS011;47216;42.656;23.232;2023-03-23T00:10:49;15.37;;;8.60;;
61344;SDS011;47216;42.656;23.232;2023-03-23T00:13:17;13.00;;;7.67;;
61344;SDS011;47216;42.656;23.232;2023-03-23T00:15:45;11.63;;;7.23;;
61344;SDS011;47216;42.656;23.232;2023-03-23T00:18:13;12.60;;;7.73;;
61344;SDS011;47216;42.656;23.232;2023-03-23T00:20:46;11.63;;;7.67;;
61344;SDS011;47216;42.656;23.232;2023-03-23T00:23:14;12.20;;;6.90;;
61344;SDS011;47216;42.656;23.232;2023-03-23T00:25:44;12.97;;;6.13;;
61344;SDS011;47216;42.656;23.232;2023-03-23T00:28:13;10.10;;;6.77;;
61344;SDS011;47216;42.656;23.232;2023-03-23T00:45:10;8.60;;;6.50;;
61344;SDS011;47216;42.656;23.232;2023-03-23T00:47:37;10.10;;;6.07;;
61344;SDS011;47216;42.656;23.232;2023-03-23T00:50:04;10.07;;;6.07;;
61344;SDS011;47216;42.656;23.232;2023-03-23T00:52:31;9.10;;;6.27;;
61344;SDS011;47216;42.656;23.232;2023-03-23T00:54:58;12.00;;;6.30;;
61344;SDS011;47216;42.656;23.232;2023-03-23T00:57:24;8.70;;;5.73;;
61344;SDS011;47216;42.656;23.232;2023-03-23T00:59:51;10.23;;;6.13;;
61344;SDS011;47216;42.656;23.232;2023-03-23T01:02:19;8.43;;;5.83;;
61344;SDS011;47216;42.656;23.232;2023-03-23T01:04:49;11.70;;;6.43;;
61344;SDS011;47216;42.656;23.232;2023-03-23T01:07:17;7.77;;;5.17;;
61344;SDS011;47216;42.656;23.232;2023-03-23T01:09:44;9.97;;;6.17;;
61344;SDS011;47216;42.656;23.232;2023-03-23T01:12:11;9.90;;;6.30;;
61344;SDS011;47216;42.656;23.232;2023-03-23T01:14:38;11.60;;;5.93;;
61344;SDS011;47216;42.656;23.232;2023-03-23T01:17:04;8.47;;;5.10;;
61344;SDS011;47216;42.656;23.232;2023-03-23T01:19:33;9.13;;;5.80;;
61344;SDS011;47216;42.656;23.232;2023-03-23T01:22:00;11.87;;;6.83;;
61344;SDS011;47216;42.656;23.232;2023-03-23T01:24:26;9.80;;;6.43;;
61344;SDS011;47216;42.656;23.232;2023-03-23T01:26:53;10.00;;;6.60;;
61344;SDS011;47216;42.656;23.232;2023-03-23T01:29:20;13.40;;;7.00;;
61344;SDS011;47216;42.656;23.232;2023-03-23T01:31:46;12.00;;;6.50;;
61344;SDS011;47216;42.656;23.232;2023-03-23T01:34:13;12.03;;;5.90;;
61344;SDS011;47216;42.656;23.232;2023-03-23T01:36:41;9.70;;;6.27;;
61344;SDS011;47216;42.656;23.232;2023-03-23T01:39:08;8.63;;;6.00;;
61344;SDS011;47216;42.656;23.232;2023-03-23T01:41:35;7.10;;;5.00;;
61344;SDS011;47216;42.656;23.232;2023-03-23T01:44:03;14.90;;;7.47;;
61344;SDS011;47216;42.656;23.232;2023-03-23T01:46:32;9.53;;;5.93;;
61344;SDS011;47216;42.656;23.232;2023-03-23T01:49:01;8.30;;;5.57;;
61344;SDS011;47216;42.656;23.232;2023-03-23T01:51:33;8.47;;;6.30;;
61344;SDS011;47216;42.656;23.232;2023-03-23T01:54:05;13.53;;;6.93;;
61344;SDS011;47216;42.656;23.232;2023-03-23T01:56:36;8.30;;;5.40;;
61344;SDS011;47216;42.656;23.232;2023-03-23T01:59:10;8.00;;;4.97;;
61344;SDS011;47216;42.656;23.232;2023-03-23T02:01:38;10.83;;;6.17;;
61344;SDS011;47216;42.656;23.232;2023-03-23T02:04:10;11.20;;;7.83;;
61344;SDS011;47216;42.656;23.232;2023-03-23T02:06:39;10.30;;;6.10;;
61344;SDS011;47216;42.656;23.232;2023-03-23T02:09:08;12.87;;;6.80;;
61344;SDS011;47216;42.656;23.232;2023-03-23T02:11:35;11.90;;;7.73;;
61344;SDS011;47216;42.656;23.232;2023-03-23T02:14:02;10.90;;;7.53;;
61344;SDS011;47216;42.656;23.232;2023-03-23T02:16:31;12.77;;;7.10;;
61344;SDS011;47216;42.656;23.232;2023-03-23T02:19:07;12.90;;;7.73;;
61344;SDS011;47216;42.656;23.232;2023-03-23T02:24:59;12.63;;;7.50;;
61344;SDS011;47216;42.656;23.232;2023-03-23T02:27:45;11.63;;;6.73;;
61344;SDS011;47216;42.656;23.232;2023-03-23T02:30:35;10.43;;;7.17;;
61344;SDS011;47216;42.656;23.232;2023-03-23T02:33:17;13.43;;;7.57;;
61344;SDS011;47216;42.656;23.232;2023-03-23T02:36:09;9.87;;;6.53;;
61344;SDS011;47216;42.656;23.232;2023-03-23T02:38:41;9.60;;;6.53;;
61344;SDS011;47216;42.656;23.232;2023-03-23T02:41:19;14.27;;;7.37;;
61344;SDS011;47216;42.656;23.232;2023-03-23T02:43:50;11.37;;;7.23;;
61344;SDS011;47216;42.656;23.232;2023-03-23T02:46:18;10.23;;;7.20;;
61344;SDS011;47216;42.656;23.232;2023-03-23T02:48:48;15.00;;;7.63;;
61344;SDS011;47216;42.656;23.232;2023-03-23T02:51:21;13.17;;;8.13;;
61344;SDS011;47216;42.656;23.232;2023-03-23T02:53:50;14.97;;;7.77;;
61344;SDS011;47216;42.656;23.232;2023-03-23T02:56:19;9.70;;;7.60;;
61344;SDS011;47216;42.656;23.232;2023-03-23T02:58:49;12.93;;;8.03;;
61344;SDS011;47216;42.656;23.232;2023-03-23T03:04:18;10.53;;;7.13;;
61344;SDS011;47216;42.656;23.232;2023-03-23T03:06:50;11.00;;;7.30;;
61344;SDS011;47216;42.656;23.232;2023-03-23T03:09:29;11.63;;;7.20;;
61344;SDS011;47216;42.656;23.232;2023-03-23T03:12:04;14.87;;;7.70;;
61344;SDS011;47216;42.656;23.232;2023-03-23T03:14:35;16.60;;;9.60;;
61344;SDS011;47216;42.656;23.232;2023-03-23T03:17:08;14.63;;;8.47;;
61344;SDS011;47216;42.656;23.232;2023-03-23T03:19:45;13.67;;;8.17;;
61344;SDS011;47216;42.656;23.232;2023-03-23T03:22:15;13.33;;;8.30;;
61344;SDS011;47216;42.656;23.232;2023-03-23T03:24:45;13.50;;;8.07;;
61344;SDS011;47216;42.656;23.232;2023-03-23T03:27:16;16.40;;;10.13;;
61344;SDS011;47216;42.656;23.232;2023-03-23T03:29:49;12.93;;;8.07;;
61344;SDS011;47216;42.656;23.232;2023-03-23T03:32:22;17.50;;;9.33;;
61344;SDS011;47216;42.656;23.232;2023-03-23T03:34:54;16.53;;;9.07;;
61344;SDS011;47216;42.656;23.232;2023-03-23T03:37:21;14.93;;;8.67;;
61344;SDS011;47216;42.656;23.232;2023-03-23T03:39:48;11.70;;;8.20;;
61344;SDS011;47216;42.656;23.232;2023-03-23T03:42:16;13.50;;;8.87;;
61344;SDS011;47216;42.656;23.232;2023-03-23T03:44:42;10.50;;;8.40;;
61344;SDS011;47216;42.656;23.232;2023-03-23T03:47:09;13.90;;;8.67;;
61344;SDS011;47216;42.656;23.232;2023-03-23T03:49:36;13.07;;;8.97;;
61344;SDS011;47216;42.656;23.232;2023-03-23T03:52:04;17.63;;;11.53;;
61344;SDS011;47216;42.656;23.232;2023-03-23T03:54:31;15.97;;;10.40;;
61344;SDS011;47216;42.656;23.232;2023-03-23T03:56:57;12.27;;;8.57;;
61344;SDS011;47216;42.656;23.232;2023-03-23T03:59:24;15.17;;;9.43;;
61344;SDS011;47216;42.656;23.232;2023-03-23T04:01:52;12.73;;;7.80;;
61344;SDS011;47216;42.656;23.232;2023-03-23T04:04:19;9.60;;;6.80;;
61344;SDS011;47216;42.656;23.232;2023-03-23T04:06:47;9.70;;;6.67;;
61344;SDS011;47216;42.656;23.232;2023-03-23T04:09:15;11.30;;;6.60;;
61344;SDS011;47216;42.656;23.232;2023-03-23T04:11:42;8.20;;;6.50;;
61344;SDS011;47216;42.656;23.232;2023-03-23T04:14:09;10.00;;;6.10;;
61344;SDS011;47216;42.656;23.232;2023-03-23T04:16:36;13.23;;;8.63;;
61344;SDS011;47216;42.656;23.232;2023-03-23T04:19:02;13.23;;;7.07;;
61344;SDS011;47216;42.656;23.232;2023-03-23T04:21:30;12.20;;;7.37;;
61344;SDS011;47216;42.656;23.232;2023-03-23T04:23:57;13.73;;;8.30;;
61344;SDS011;47216;42.656;23.232;2023-03-23T04:26:27;12.73;;;7.87;;
61344;SDS011;47216;42.656;23.232;2023-03-23T04:28:54;13.87;;;9.00;;
61344;SDS011;47216;42.656;23.232;2023-03-23T04:31:21;13.83;;;9.40;;
61344;SDS011;47216;42.656;23.232;2023-03-23T04:33:49;13.10;;;8.37;;
61344;SDS011;47216;42.656;23.232;2023-03-23T04:36:17;14.17;;;7.53;;
61344;SDS011;47216;42.656;23.232;2023-03-23T04:38:44;13.23;;;8.03;;
61344;SDS011;47216;42.656;23.232;2023-03-23T04:41:11;14.47;;;9.30;;
61344;SDS011;47216;42.656;23.232;2023-03-23T04:43:39;14.63;;;8.70;;
61344;SDS011;47216;42.656;23.232;2023-03-23T04:46:08;13.17;;;8.37;;
61344;SDS011;47216;42.656;23.232;2023-03-23T04:48:35;12.60;;;7.33;;
61344;SDS011;47216;42.656;23.232;2023-03-23T04:51:04;11.83;;;7.33;;
61344;SDS011;47216;42.656;23.232;2023-03-23T04:53:32;11.87;;;7.53;;
61344;SDS011;47216;42.656;23.232;2023-03-23T04:55:59;13.60;;;7.90;;
61344;SDS011;47216;42.656;23.232;2023-03-23T04:58:27;12.47;;;7.67;;
61344;SDS011;47216;42.656;23.232;2023-03-23T05:00:56;10.77;;;7.23;;
61344;SDS011;47216;42.656;23.232;2023-03-23T05:03:22;12.40;;;7.57;;
61344;SDS011;47216;42.656;23.232;2023-03-23T05:05:50;15.33;;;7.87;;
61344;SDS011;47216;42.656;23.232;2023-03-23T05:08:18;10.20;;;7.53;;
61344;SDS011;47216;42.656;23.232;2023-03-23T05:10:51;14.70;;;7.83;;
61344;SDS011;47216;42.656;23.232;2023-03-23T05:13:19;10.83;;;7.27;;
61344;SDS011;47216;42.656;23.232;2023-03-23T05:15:46;12.00;;;7.60;;
61344;SDS011;47216;42.656;23.232;2023-03-23T05:18:15;9.87;;;7.43;;
61344;SDS011;47216;42.656;23.232;2023-03-23T05:20:42;11.37;;;8.33;;
61344;SDS011;47216;42.656;23.232;2023-03-23T05:23:11;12.10;;;8.50;;
61344;SDS011;47216;42.656;23.232;2023-03-23T05:25:39;10.17;;;7.33;;
61344;SDS011;47216;42.656;23.232;2023-03-23T05:28:06;11.17;;;7.53;;
61344;SDS011;47216;42.656;23.232;2023-03-23T05:30:33;11.93;;;8.07;;
61344;SDS011;47216;42.656;23.232;2023-03-23T05:33:01;11.07;;;7.83;;
61344;SDS011;47216;42.656;23.232;2023-03-23T05:35:30;13.57;;;8.00;;
61344;SDS011;47216;42.656;23.232;2023-03-23T05:37:57;11.67;;;7.47;;
61344;SDS011;47216;42.656;23.232;2023-03-23T05:40:25;12.00;;;8.33;;
61344;SDS011;47216;42.656;23.232;2023-03-23T05:42:53;15.27;;;9.37;;
61344;SDS011;47216;42.656;23.232;2023-03-23T05:45:20;13.00;;;8.70;;
61344;SDS011;47216;42.656;23.232;2023-03-23T05:47:47;12.43;;;8.40;;
61344;SDS011;47216;42.656;23.232;2023-03-23T05:50:15;13.20;;;8.90;;
61344;SDS011;47216;42.656;23.232;2023-03-23T05:52:44;11.60;;;7.67;;
61344;SDS011;47216;42.656;23.232;2023-03-23T05:55:11;13.87;;;8.90;;
61344;SDS011;47216;42.656;23.232;2023-03-23T05:57:39;14.20;;;8.70;;
61344;SDS011;47216;42.656;23.232;2023-03-23T06:00:06;12.23;;;8.07;;
61344;SDS011;47216;42.656;23.232;2023-03-23T06:02:44;12.00;;;8.80;;
61344;SDS011;47216;42.656;23.232;2023-03-23T06:05:13;13.23;;;8.77;;
61344;SDS011;47216;42.656;23.232;2023-03-23T06:07:41;13.53;;;8.87;;
61344;SDS011;47216;42.656;23.232;2023-03-23T06:10:09;17.10;;;10.57;;
61344;SDS011;47216;42.656;23.232;2023-03-23T06:12:36;14.73;;;9.40;;
61344;SDS011;47216;42.656;23.232;2023-03-23T06:15:04;16.37;;;9.93;;
61344;SDS011;47216;42.656;23.232;2023-03-23T06:17:32;16.60;;;10.83;;
61344;SDS011;47216;42.656;23.232;2023-03-23T06:19:59;14.53;;;10.47;;
61344;SDS011;47216;42.656;23.232;2023-03-23T06:22:26;18.63;;;11.63;;
61344;SDS011;47216;42.656;23.232;2023-03-23T06:24:53;17.73;;;12.00;;
61344;SDS011;47216;42.656;23.232;2023-03-23T06:27:23;19.47;;;12.57;;
61344;SDS011;47216;42.656;23.232;2023-03-23T06:29:50;19.97;;;12.67;;
61344;SDS011;47216;42.656;23.232;2023-03-23T06:32:17;23.87;;;14.70;;
61344;SDS011;47216;42.656;23.232;2023-03-23T06:34:44;20.90;;;13.10;;
61344;SDS011;47216;42.656;23.232;2023-03-23T06:37:12;21.97;;;12.57;;
61344;SDS011;47216;42.656;23.232;2023-03-23T06:39:40;18.67;;;11.30;;
61344;SDS011;47216;42.656;23.232;2023-03-23T06:42:08;20.07;;;12.60;;
61344;SDS011;47216;42.656;23.232;2023-03-23T06:44:37;19.00;;;12.20;;
61344;SDS011;47216;42.656;23.232;2023-03-23T06:47:04;19.90;;;12.50;;
61344;SDS011;47216;42.656;23.232;2023-03-23T06:49:32;20.53;;;12.47;;
61344;SDS011;47216;42.656;23.232;2023-03-23T06:51:59;20.37;;;12.93;;
61344;SDS011;47216;42.656;23.232;2023-03-23T06:54:26;20.80;;;13.43;;
61344;SDS011;47216;42.656;23.232;2023-03-23T06:56:53;19.83;;;13.07;;
61344;SDS011;47216;42.656;23.232;2023-03-23T06:59:20;23.40;;;12.83;;
61344;SDS011;47216;42.656;23.232;2023-03-23T07:01:48;15.80;;;11.10;;
61344;SDS011;47216;42.656;23.232;2023-03-23T07:04:15;15.77;;;10.93;;
61344;SDS011;47216;42.656;23.232;2023-03-23T07:06:42;15.63;;;10.67;;
61344;SDS011;47216;42.656;23.232;2023-03-23T07:09:09;15.80;;;10.37;;
61344;SDS011;47216;42.656;23.232;2023-03-23T07:11:36;17.40;;;11.53;;
61344;SDS011;47216;42.656;23.232;2023-03-23T07:14:03;16.57;;;11.50;;
61344;SDS011;47216;42.656;23.232;2023-03-23T07:16:30;20.57;;;13.20;;
61344;SDS011;47216;42.656;23.232;2023-03-23T07:18:58;18.40;;;12.60;;
61344;SDS011;47216;42.656;23.232;2023-03-23T07:21:25;19.07;;;12.83;;
61344;SDS011;47216;42.656;23.232;2023-03-23T07:23:52;18.47;;;12.47;;
61344;SDS011;47216;42.656;23.232;2023-03-23T07:26:19;22.33;;;13.87;;
61344;SDS011;47216;42.656;23.232;2023-03-23T07:28:46;23.23;;;14.33;;
61344;SDS011;47216;42.656;23.232;2023-03-23T07:31:13;23.07;;;14.83;;
61344;SDS011;47216;42.656;23.232;2023-03-23T07:33:40;21.37;;;13.87;;
61344;SDS011;47216;42.656;23.232;2023-03-23T07:36:08;20.53;;;14.03;;
61344;SDS011;47216;42.656;23.232;2023-03-23T07:38:36;16.97;;;12.93;;
61344;SDS011;47216;42.656;23.232;2023-03-23T07:41:03;25.33;;;15.20;;
61344;SDS011;47216;42.656;23.232;2023-03-23T07:43:31;21.03;;;14.00;;
61344;SDS011;47216;42.656;23.232;2023-03-23T07:45:58;20.40;;;13.73;;
61344;SDS011;47216;42.656;23.232;2023-03-23T07:48:24;20.87;;;14.43;;
61344;SDS011;47216;42.656;23.232;2023-03-23T07:50:51;22.77;;;15.07;;
61344;SDS011;47216;42.656;23.232;2023-03-23T07:53:19;20.07;;;13.80;;
61344;SDS011;47216;42.656;23.232;2023-03-23T07:55:49;26.27;;;15.30;;
61344;SDS011;47216;42.656;23.232;2023-03-23T07:58:15;24.20;;;14.47;;
61344;SDS011;47216;42.656;23.232;2023-03-23T08:00:44;21.97;;;15.13;;
61344;SDS011;47216;42.656;23.232;2023-03-23T08:03:13;25.73;;;15.47;;
61344;SDS011;47216;42.656;23.232;2023-03-23T08:05:40;21.73;;;15.53;;
61344;SDS011;47216;42.656;23.232;2023-03-23T08:08:07;22.80;;;15.37;;
61344;SDS011;47216;42.656;23.232;2023-03-23T08:10:37;19.37;;;15.03;;
61344;SDS011;47216;42.656;23.232;2023-03-23T08:13:04;21.47;;;15.47;;
61344;SDS011;47216;42.656;23.232;2023-03-23T08:15:32;22.33;;;15.27;;
61344;SDS011;47216;42.656;23.232;2023-03-23T08:17:59;20.90;;;15.30;;
61344;SDS011;47216;42.656;23.232;2023-03-23T08:20:27;20.60;;;14.70;;
61344;SDS011;47216;42.656;23.232;2023-03-23T08:22:55;20.03;;;14.90;;
61344;SDS011;47216;42.656;23.232;2023-03-23T08:25:23;19.77;;;14.40;;
61344;SDS011;47216;42.656;23.232;2023-03-23T08:27:53;21.53;;;13.27;;
61344;SDS011;47216;42.656;23.232;2023-03-23T08:30:20;18.57;;;12.63;;
61344;SDS011;47216;42.656;23.232;2023-03-23T08:32:49;23.20;;;13.57;;
61344;SDS011;47216;42.656;23.232;2023-03-23T08:35:17;20.30;;;13.63;;
61344;SDS011;47216;42.656;23.232;2023-03-23T08:37:45;19.10;;;12.73;;
61344;SDS011;47216;42.656;23.232;2023-03-23T08:40:16;20.37;;;13.03;;
61344;SDS011;47216;42.656;23.232;2023-03-23T08:42:44;17.20;;;12.93;;
61344;SDS011;47216;42.656;23.232;2023-03-23T08:45:14;19.20;;;11.30;;
61344;SDS011;47216;42.656;23.232;2023-03-23T08:47:44;10.20;;;6.37;;
61344;SDS011;47216;42.656;23.232;2023-03-23T08:50:12;11.27;;;5.63;;
61344;SDS011;47216;42.656;23.232;2023-03-23T08:52:40;11.93;;;5.93;;
61344;SDS011;47216;42.656;23.232;2023-03-23T08:55:08;7.90;;;5.00;;
61344;SDS011;47216;42.656;23.232;2023-03-23T08:57:36;6.20;;;4.80;;
61344;SDS011;47216;42.656;23.232;2023-03-23T09:00:04;7.80;;;5.70;;
61344;SDS011;47216;42.656;23.232;2023-03-23T09:02:40;9.30;;;6.10;;
61344;SDS011;47216;42.656;23.232;2023-03-23T09:05:07;8.23;;;6.40;;
61344;SDS011;47216;42.656;23.232;2023-03-23T09:07:36;12.53;;;5.57;;
61344;SDS011;47216;42.656;23.232;2023-03-23T09:10:03;8.77;;;5.67;;
61344;SDS011;47216;42.656;23.232;2023-03-23T09:12:31;7.40;;;5.53;;
61344;SDS011;47216;42.656;23.232;2023-03-23T09:14:57;8.07;;;5.63;;
61344;SDS011;47216;42.656;23.232;2023-03-23T09:17:24;8.37;;;5.90;;
61344;SDS011;47216;42.656;23.232;2023-03-23T09:19:52;9.30;;;6.23;;
61344;SDS011;47216;42.656;23.232;2023-03-23T09:22:19;8.50;;;6.13;;
61344;SDS011;47216;42.656;23.232;2023-03-23T09:24:48;6.90;;;5.80;;
61344;SDS011;47216;42.656;23.232;2023-03-23T09:27:16;8.20;;;5.87;;
61344;SDS011;47216;42.656;23.232;2023-03-23T09:29:44;7.73;;;5.53;;
61344;SDS011;47216;42.656;23.232;2023-03-23T09:32:13;6.87;;;5.27;;
61344;SDS011;47216;42.656;23.232;2023-03-23T09:34:41;11.70;;;5.57;;
61344;SDS011;47216;42.656;23.232;2023-03-23T09:37:09;8.17;;;5.53;;
61344;SDS011;47216;42.656;23.232;2023-03-23T09:39:38;6.80;;;5.33;;
61344;SDS011;47216;42.656;23.232;2023-03-23T09:42:07;9.13;;;6.27;;
61344;SDS011;47216;42.656;23.232;2023-03-23T09:44:51;7.40;;;5.53;;
61344;SDS011;47216;42.656;23.232;2023-03-23T09:47:30;8.03;;;5.50;;
61344;SDS011;47216;42.656;23.232;2023-03-23T09:50:09;8.50;;;5.93;;
61344;SDS011;47216;42.656;23.232;2023-03-23T09:52:41;7.40;;;5.70;;
61344;SDS011;47216;42.656;23.232;2023-03-23T09:55:11;8.07;;;5.93;;
61344;SDS011;47216;42.656;23.232;2023-03-23T09:57:45;9.40;;;5.57;;
61344;SDS011;47216;42.656;23.232;2023-03-23T10:00:29;6.73;;;5.23;;
61344;SDS011;47216;42.656;23.232;2023-03-23T10:03:00;5.67;;;5.10;;
61344;SDS011;47216;42.656;23.232;2023-03-23T10:05:32;6.93;;;5.50;;
61344;SDS011;47216;42.656;23.232;2023-03-23T10:08:05;7.57;;;5.13;;
61344;SDS011;47216;42.656;23.232;2023-03-23T10:10:41;11.43;;;5.80;;
61344;SDS011;47216;42.656;23.232;2023-03-23T10:13:16;9.30;;;5.80;;
61344;SDS011;47216;42.656;23.232;2023-03-23T10:15:56;7.77;;;5.50;;
61344;SDS011;47216;42.656;23.232;2023-03-23T10:18:26;6.90;;;5.57;;
61344;SDS011;47216;42.656;23.232;2023-03-23T10:21:03;7.57;;;5.70;;
61344;SDS011;47216;42.656;23.232;2023-03-23T10:23:40;8.20;;;5.47;;
61344;SDS011;47216;42.656;23.232;2023-03-23T10:26:18;9.00;;;5.90;;
61344;SDS011;47216;42.656;23.232;2023-03-23T10:28:54;12.13;;;6.23;;
61344;SDS011;47216;42.656;23.232;2023-03-23T10:31:24;8.00;;;5.23;;
61344;SDS011;47216;42.656;23.232;2023-03-23T10:34:02;8.43;;;5.53;;
61344;SDS011;47216;42.656;23.232;2023-03-23T10:36:35;9.33;;;5.57;;
61344;SDS011;47216;42.656;23.232;2023-03-23T10:39:09;8.37;;;5.23;;
61344;SDS011;47216;42.656;23.232;2023-03-23T10:41:39;7.37;;;4.93;;
61344;SDS011;47216;42.656;23.232;2023-03-23T10:44:09;8.30;;;5.00;;
61344;SDS011;47216;42.656;23.232;2023-03-23T10:46:39;10.67;;;5.13;;
61344;SDS011;47216;42.656;23.232;2023-03-23T10:49:20;7.00;;;4.87;;
61344;SDS011;47216;42.656;23.232;2023-03-23T10:51:51;7.77;;;4.70;;
61344;SDS011;47216;42.656;23.232;2023-03-23T10:54:27;5.90;;;4.60;;
61344;SDS011;47216;42.656;23.232;2023-03-23T10:57:01;7.07;;;4.87;;
61344;SDS011;47216;42.656;23.232;2023-03-23T10:59:40;9.37;;;4.73;;
61344;SDS011;47216;42.656;23.232;2023-03-23T11:02:10;7.60;;;5.20;;
61344;SDS011;47216;42.656;23.232;2023-03-23T11:04:44;6.90;;;5.40;;
61344;SDS011;47216;42.656;23.232;2023-03-23T11:07:23;8.27;;;4.93;;
61344;SDS011;47216;42.656;23.232;2023-03-23T11:09:56;8.80;;;5.57;;
61344;SDS011;47216;42.656;23.232;2023-03-23T11:12:32;6.30;;;5.50;;
61344;SDS011;47216;42.656;23.232;2023-03-23T11:15:03;8.07;;;5.30;;
61344;SDS011;47216;42.656;23.232;2023-03-23T11:17:42;5.93;;;4.60;;
61344;SDS011;47216;42.656;23.232;2023-03-23T11:20:10;6.10;;;4.60;;
61344;SDS011;47216;42.656;23.232;2023-03-23T11:22:37;15.90;;;11.67;;
61344;SDS011;47216;42.656;23.232;2023-03-23T11:25:09;7.43;;;5.67;;
61344;SDS011;47216;42.656;23.232;2023-03-23T11:27:39;7.17;;;4.93;;
61344;SDS011;47216;42.656;23.232;2023-03-23T11:30:08;8.30;;;5.30;;
61344;SDS011;47216;42.656;23.232;2023-03-23T11:32:37;11.60;;;5.63;;
61344;SDS011;47216;42.656;23.232;2023-03-23T11:35:17;6.20;;;5.23;;
61344;SDS011;47216;42.656;23.232;2023-03-23T11:37:47;8.37;;;5.13;;
61344;SDS011;47216;42.656;23.232;2023-03-23T11:40:20;6.37;;;5.07;;
61344;SDS011;47216;42.656;23.232;2023-03-23T11:42:49;8.77;;;5.37;;
61344;SDS011;47216;42.656;23.232;2023-03-23T11:45:25;5.57;;;4.97;;
61344;SDS011;47216;42.656;23.232;2023-03-23T11:47:59;6.17;;;5.17;;
61344;SDS011;47216;42.656;23.232;2023-03-23T11:50:43;6.33;;;5.47;;
61344;SDS011;47216;42.656;23.232;2023-03-23T11:53:15;7.57;;;5.23;;
61344;SDS011;47216;42.656;23.232;2023-03-23T11:55:55;6.13;;;5.23;;
61344;SDS011;47216;42.656;23.232;2023-03-23T11:58:28;7.63;;;5.43;;
61344;SDS011;47216;42.656;23.232;2023-03-23T12:00:58;6.80;;;5.43;;
61344;SDS011;47216;42.656;23.232;2023-03-23T12:03:39;7.07;;;5.30;;
61344;SDS011;47216;42.656;23.232;2023-03-23T12:06:23;7.80;;;5.50;;
61344;SDS011;47216;42.656;23.232;2023-03-23T12:09:00;7.83;;;5.50;;
61344;SDS011;47216;42.656;23.232;2023-03-23T12:11:37;10.70;;;8.37;;
61344;SDS011;47216;42.656;23.232;2023-03-23T12:14:13;8.13;;;4.70;;
61344;SDS011;47216;42.656;23.232;2023-03-23T12:16:48;8.30;;;5.03;;
61344;SDS011;47216;42.656;23.232;2023-03-23T12:19:25;6.23;;;4.67;;
61344;SDS011;47216;42.656;23.232;2023-03-23T12:21:59;5.53;;;4.37;;
61344;SDS011;47216;42.656;23.232;2023-03-23T12:24:46;7.77;;;5.13;;
61344;SDS011;47216;42.656;23.232;2023-03-23T12:27:25;8.23;;;5.20;;
61344;SDS011;47216;42.656;23.232;2023-03-23T12:30:02;7.13;;;4.67;;
61344;SDS011;47216;42.656;23.232;2023-03-23T12:32:42;5.83;;;4.90;;
61344;SDS011;47216;42.656;23.232;2023-03-23T12:35:20;8.90;;;6.10;;
61344;SDS011;47216;42.656;23.232;2023-03-23T12:38:04;7.23;;;4.73;;
61344;SDS011;47216;42.656;23.232;2023-03-23T12:40:51;11.07;;;6.87;;
61344;SDS011;47216;42.656;23.232;2023-03-23T12:43:28;12.10;;;6.83;;
61344;SDS011;47216;42.656;23.232;2023-03-23T12:49:07;11.70;;;7.07;;
61344;SDS011;47216;42.656;23.232;2023-03-23T12:51:39;6.47;;;4.70;;
61344;SDS011;47216;42.656;23.232;2023-03-23T12:54:11;5.47;;;4.60;;
61344;SDS011;47216;42.656;23.232;2023-03-23T12:56:45;7.70;;;4.73;;
61344;SDS011;47216;42.656;23.232;2023-03-23T12:59:17;6.27;;;4.77;;
61344;SDS011;47216;42.656;23.232;2023-03-23T13:01:50;5.73;;;4.40;;
61344;SDS011;47216;42.656;23.232;2023-03-23T13:04:21;5.00;;;4.10;;
61344;SDS011;47216;42.656;23.232;2023-03-23T13:06:53;4.70;;;3.83;;
61344;SDS011;47216;42.656;23.232;2023-03-23T13:09:21;6.77;;;3.80;;
61344;SDS011;47216;42.656;23.232;2023-03-23T13:11:53;5.87;;;4.50;;
61344;SDS011;47216;42.656;23.232;2023-03-23T13:14:26;6.23;;;4.50;;
61344;SDS011;47216;42.656;23.232;2023-03-23T13:17:05;6.83;;;4.37;;
61344;SDS011;47216;42.656;23.232;2023-03-23T13:19:40;9.50;;;4.43;;
61344;SDS011;47216;42.656;23.232;2023-03-23T13:22:21;5.90;;;4.17;;
61344;SDS011;47216;42.656;23.232;2023-03-23T13:24:58;5.00;;;4.40;;
61344;SDS011;47216;42.656;23.232;2023-03-23T13:27:29;7.97;;;4.57;;
61344;SDS011;47216;42.656;23.232;2023-03-23T13:29:58;7.77;;;4.40;;
61344;SDS011;47216;42.656;23.232;2023-03-23T13:32:29;6.20;;;4.10;;
61344;SDS011;47216;42.656;23.232;2023-03-23T13:35:00;5.10;;;4.10;;
61344;SDS011;47216;42.656;23.232;2023-03-23T13:37:28;8.03;;;3.90;;
61344;SDS011;47216;42.656;23.232;2023-03-23T13:39:56;4.47;;;3.60;;
61344;SDS011;47216;42.656;23.232;2023-03-23T13:42:25;5.17;;;4.40;;
61344;SDS011;47216;42.656;23.232;2023-03-23T13:44:56;8.57;;;4.97;;
61344;SDS011;47216;42.656;23.232;2023-03-23T13:47:39;5.90;;;3.77;;
61344;SDS011;47216;42.656;23.232;2023-03-23T13:50:11;5.17;;;3.63;;
61344;SDS011;47216;42.656;23.232;2023-03-23T13:52:51;3.87;;;3.20;;
61344;SDS011;47216;42.656;23.232;2023-03-23T13:55:21;4.77;;;3.83;;
61344;SDS011;47216;42.656;23.232;2023-03-23T13:57:57;6.60;;;4.10;;
61344;SDS011;47216;42.656;23.232;2023-03-23T14:00:44;6.50;;;4.00;;
61344;SDS011;47216;42.656;23.232;2023-03-23T14:03:13;3.80;;;3.47;;
61344;SDS011;47216;42.656;23.232;2023-03-23T14:05:44;4.97;;;4.07;;
61344;SDS011;47216;42.656;23.232;2023-03-23T14:08:20;5.93;;;3.87;;
61344;SDS011;47216;42.656;23.232;2023-03-23T14:10:51;6.00;;;3.80;;
61344;SDS011;47216;42.656;23.232;2023-03-23T14:13:23;5.90;;;4.17;;
61344;SDS011;47216;42.656;23.232;2023-03-23T14:15:57;6.97;;;4.13;;
61344;SDS011;47216;42.656;23.232;2023-03-23T14:18:29;5.57;;;4.23;;
61344;SDS011;47216;42.656;23.232;2023-03-23T14:20:58;6.83;;;4.10;;
61344;SDS011;47216;42.656;23.232;2023-03-23T14:23:26;6.80;;;4.27;;
61344;SDS011;47216;42.656;23.232;2023-03-23T14:25:58;4.80;;;3.80;;
61344;SDS011;47216;42.656;23.232;2023-03-23T14:28:32;6.13;;;3.90;;
61344;SDS011;47216;42.656;23.232;2023-03-23T14:31:04;5.77;;;4.07;;
61344;SDS011;47216;42.656;23.232;2023-03-23T14:33:39;5.63;;;3.90;;
61344;SDS011;47216;42.656;23.232;2023-03-23T14:36:07;5.43;;;3.60;;
61344;SDS011;47216;42.656;23.232;2023-03-23T14:38:34;4.40;;;3.60;;
61344;SDS011;47216;42.656;23.232;2023-03-23T14:41:02;4.53;;;3.87;;
61344;SDS011;47216;42.656;23.232;2023-03-23T14:43:31;4.70;;;3.40;;
61344;SDS011;47216;42.656;23.232;2023-03-23T14:46:00;5.43;;;3.87;;
61344;SDS011;47216;42.656;23.232;2023-03-23T14:48:33;4.27;;;3.73;;
61344;SDS011;47216;42.656;23.232;2023-03-23T14:51:02;6.63;;;3.90;;
61344;SDS011;47216;42.656;23.232;2023-03-23T14:53:32;7.10;;;4.07;;
61344;SDS011;47216;42.656;23.232;2023-03-23T14:56:03;6.27;;;3.87;;
61344;SDS011;47216;42.656;23.232;2023-03-23T14:58:36;8.33;;;5.17;;
61344;SDS011;47216;42.656;23.232;2023-03-23T15:01:05;9.73;;;5.27;;
61344;SDS011;47216;42.656;23.232;2023-03-23T15:03:38;7.77;;;4.33;;
61344;SDS011;47216;42.656;23.232;2023-03-23T15:06:10;5.50;;;3.97;;
61344;SDS011;47216;42.656;23.232;2023-03-23T15:08:40;8.57;;;4.07;;